Time;durP1;ratioP1;P1;durP2;ratioP2;P2;SDS_P1;SDS_P2;PMS_P1;PMS_P2;Temp;Humidity;BMP_temperature;BMP_pressure;BME280_temperature;BME280_humidity;BME280_pressure;Samples;Min_cycle;Max_cycle;Signal;HPM_P1;HPM_P2
2022/11/28 00:00:15;;;;;;;15.97;10.87;;;5.60;99.90;;;;;;5036194;28;20214;-68
2022/11/28 00:02:41;;;;;;;16.40;10.97;;;5.60;99.90;;;;;;5034935;28;20240;-68
2022/11/28 00:05:10;;;;;;;15.90;10.60;;;5.60;99.90;;;;;;5036637;28;20201;-65
2022/11/28 00:07:36;;;;;;;13.57;10.13;;;5.60;99.90;;;;;;5036240;28;20590;-63
2022/11/28 00:10:01;;;;;;;17.53;10.63;;;5.50;99.90;;;;;;5035393;28;20974;-63
2022/11/28 00:12:27;;;;;;;16.10;10.83;;;5.50;99.90;;;;;;5036777;28;20198;-63
2022/11/28 00:14:53;;;;;;;14.60;11.50;;;5.50;99.90;;;;;;5033682;28;20278;-64
2022/11/28 00:17:19;;;;;;;15.10;10.17;;;5.40;99.90;;;;;;5035418;28;22098;-64
2022/11/28 00:19:44;;;;;;;19.20;11.93;;;5.40;99.90;;;;;;5035561;28;20223;-67
2022/11/28 00:22:10;;;;;;;16.50;11.73;;;5.40;99.90;;;;;;5035912;28;20661;-64
2022/11/28 00:24:36;;;;;;;14.40;10.73;;;5.40;99.90;;;;;;5033687;28;20786;-63
2022/11/28 00:27:01;;;;;;;16.57;10.43;;;5.40;99.90;;;;;;5031539;28;20203;-64
2022/11/28 00:29:26;;;;;;;15.43;10.77;;;5.40;99.90;;;;;;5034362;28;20210;-69
2022/11/28 00:31:52;;;;;;;13.57;11.17;;;5.40;99.90;;;;;;5034942;28;20301;-66
2022/11/28 00:34:18;;;;;;;20.60;12.07;;;5.40;99.90;;;;;;5035063;28;20218;-68
2022/11/28 00:36:46;;;;;;;15.43;10.83;;;5.40;99.90;;;;;;5035747;28;20721;-67
2022/11/28 00:39:12;;;;;;;16.53;11.43;;;5.40;99.90;;;;;;5034829;28;20310;-65
2022/11/28 00:41:38;;;;;;;17.20;11.83;;;5.40;99.90;;;;;;5035086;28;20256;-65
2022/11/28 00:44:03;;;;;;;17.80;11.83;;;5.40;99.90;;;;;;5034071;28;20758;-67
2022/11/28 00:46:29;;;;;;;19.77;10.90;;;5.40;99.90;;;;;;5035709;28;20684;-66
2022/11/28 00:48:55;;;;;;;14.87;10.87;;;5.40;99.90;;;;;;5021630;28;20203;-64
2022/11/28 00:51:24;;;;;;;19.63;12.20;;;5.40;99.90;;;;;;5024510;28;20207;-63
2022/11/28 00:53:51;;;;;;;16.97;11.20;;;5.30;99.90;;;;;;5029696;28;20277;-64
2022/11/28 00:56:20;;;;;;;17.70;12.17;;;5.30;99.90;;;;;;5030040;28;20198;-65
2022/11/28 00:58:48;;;;;;;19.23;12.30;;;5.30;99.90;;;;;;5028034;28;20218;-65
2022/11/28 01:01:28;;;;;;;16.13;11.30;;;5.30;99.90;;;;;;5026868;28;20691;-63
2022/11/28 01:03:56;;;;;;;21.10;12.33;;;5.30;99.90;;;;;;5029418;28;20199;-65
2022/11/28 01:06:28;;;;;;;21.47;13.30;;;5.30;99.90;;;;;;5031854;28;20195;-64
2022/11/28 01:08:55;;;;;;;15.67;12.23;;;5.30;99.90;;;;;;5030793;28;20214;-64
2022/11/28 01:11:22;;;;;;;14.80;11.67;;;5.30;99.90;;;;;;5030229;28;20240;-63
2022/11/28 01:13:47;;;;;;;13.60;9.50;;;5.30;99.90;;;;;;5039713;28;20661;-63
2022/11/28 01:16:13;;;;;;;14.33;12.50;;;5.20;99.90;;;;;;5039582;28;20209;-62
2022/11/28 01:18:39;;;;;;;13.67;11.17;;;5.20;99.90;;;;;;5039608;28;20238;-64
2022/11/28 01:21:05;;;;;;;14.70;12.40;;;5.10;99.90;;;;;;5037287;28;20272;-64
2022/11/28 01:23:31;;;;;;;17.13;11.87;;;5.10;99.90;;;;;;5038249;28;20205;-65
2022/11/28 01:25:57;;;;;;;17.87;12.67;;;5.20;99.90;;;;;;5039108;28;20199;-69
2022/11/28 01:28:22;;;;;;;17.97;13.53;;;5.20;99.90;;;;;;5039580;28;20212;-70
2022/11/28 01:30:47;;;;;;;17.73;12.87;;;5.20;99.90;;;;;;5039398;28;20366;-66
2022/11/28 01:33:13;;;;;;;19.50;12.33;;;5.10;99.90;;;;;;5039350;28;20205;-67
2022/11/28 01:35:38;;;;;;;20.40;13.60;;;5.20;99.90;;;;;;5037712;28;20229;-68
2022/11/28 01:38:04;;;;;;;18.13;13.37;;;5.10;99.90;;;;;;5039022;28;20775;-68
2022/11/28 01:40:29;;;;;;;21.63;12.90;;;5.10;99.90;;;;;;5036989;28;20228;-65
2022/11/28 01:42:55;;;;;;;18.47;13.63;;;5.10;99.90;;;;;;5027384;28;20256;-65
2022/11/28 01:45:29;;;;;;;23.07;15.17;;;5.10;99.90;;;;;;5029318;28;20612;-64
2022/11/28 01:47:58;;;;;;;20.43;13.50;;;5.10;99.90;;;;;;5028603;28;20680;-64
2022/11/28 01:50:26;;;;;;;20.20;13.67;;;5.10;99.90;;;;;;5028786;28;21502;-64
2022/11/28 01:52:55;;;;;;;19.57;12.53;;;5.00;99.90;;;;;;5028606;28;20646;-64
2022/11/28 01:55:25;;;;;;;18.93;12.77;;;5.00;99.90;;;;;;5026702;28;20305;-65
2022/11/28 01:57:53;;;;;;;21.00;13.63;;;5.00;99.90;;;;;;5028914;28;20223;-64
2022/11/28 02:00:20;;;;;;;18.57;13.87;;;4.90;99.90;;;;;;5029274;28;20550;-64
2022/11/28 02:02:54;;;;;;;17.40;12.93;;;4.90;99.90;;;;;;5028701;28;20200;-64
2022/11/28 02:05:21;;;;;;;16.97;13.10;;;4.90;99.90;;;;;;5025403;28;20254;-63
2022/11/28 02:07:47;;;;;;;17.90;13.17;;;4.80;99.90;;;;;;5026857;28;20191;-64
2022/11/28 02:10:30;;;;;;;17.40;11.40;;;4.80;99.90;;;;;;5036132;28;20202;-64
2022/11/28 02:13:20;;;;;;;18.17;14.87;;;4.80;99.90;;;;;;5025393;28;20198;-64
2022/11/28 02:15:59;;;;;;;17.33;13.67;;;4.80;99.90;;;;;;5028014;28;20732;-64
2022/11/28 02:18:46;;;;;;;17.40;12.70;;;4.80;99.90;;;;;;5028556;28;20203;-65
2022/11/28 02:21:31;;;;;;;18.63;12.03;;;4.80;99.90;;;;;;5026218;28;20270;-64
2022/11/28 02:24:19;;;;;;;18.00;12.80;;;4.80;99.90;;;;;;5027956;28;20194;-64
2022/11/28 02:27:21;;;;;;;20.50;13.83;;;4.80;99.90;;;;;;5027701;28;20202;-64
2022/11/28 02:30:34;;;;;;;17.73;12.73;;;4.80;99.90;;;;;;5027986;28;20312;-64
2022/11/28 02:33:11;;;;;;;25.77;14.17;;;4.80;99.90;;;;;;5023921;28;20226;-64
2022/11/28 02:35:50;;;;;;;20.70;12.47;;;4.80;99.90;;;;;;5027676;28;20228;-65
2022/11/28 02:38:19;;;;;;;19.00;12.03;;;4.70;99.90;;;;;;5026015;28;20211;-64
2022/11/28 02:41:19;;;;;;;18.30;12.47;;;4.60;99.90;;;;;;5028458;28;20212;-64
2022/11/28 02:44:00;;;;;;;19.73;13.33;;;4.60;99.90;;;;;;5035350;28;20685;-64
2022/11/28 02:46:32;;;;;;;19.17;12.93;;;4.70;99.90;;;;;;5027223;28;20743;-63
2022/11/28 02:49:11;;;;;;;18.80;13.07;;;4.60;99.90;;;;;;5028290;28;20194;-66
2022/11/28 02:51:51;;;;;;;16.33;12.53;;;4.70;99.90;;;;;;5024418;28;20202;-64
2022/11/28 02:54:18;;;;;;;16.00;10.60;;;4.70;99.90;;;;;;5026915;28;20209;-64
2022/11/28 02:56:48;;;;;;;19.40;12.23;;;4.60;99.90;;;;;;5027323;28;20249;-64
2022/11/28 02:59:46;;;;;;;16.40;12.47;;;4.60;99.90;;;;;;5022263;28;20299;-63
2022/11/28 03:02:29;;;;;;;15.63;10.60;;;4.60;99.90;;;;;;5027303;28;20297;-64
2022/11/28 03:05:15;;;;;;;17.67;11.33;;;4.60;99.90;;;;;;5026530;28;20207;-64
2022/11/28 03:08:09;;;;;;;17.67;12.83;;;4.60;99.90;;;;;;5025164;28;20202;-64
2022/11/28 03:10:49;;;;;;;20.40;11.80;;;4.60;99.90;;;;;;5026736;28;20207;-63
2022/11/28 03:13:25;;;;;;;15.47;12.50;;;4.60;99.90;;;;;;5023487;28;20199;-63
2022/11/28 03:16:16;;;;;;;23.70;12.23;;;4.60;99.90;;;;;;5027267;28;20198;-64
2022/11/28 03:19:08;;;;;;;15.27;11.07;;;4.60;99.90;;;;;;5026786;28;20294;-64
2022/11/28 03:21:49;;;;;;;14.20;12.13;;;4.60;99.90;;;;;;5024789;28;20792;-63
2022/11/28 03:24:24;;;;;;;21.60;12.13;;;4.60;99.90;;;;;;5025774;28;20206;-63
2022/11/28 03:26:55;;;;;;;18.07;11.80;;;4.60;99.90;;;;;;5026453;28;20556;-63
2022/11/28 03:29:32;;;;;;;15.60;12.33;;;4.60;99.90;;;;;;5026646;28;20208;-65
2022/11/28 03:32:07;;;;;;;18.13;12.63;;;4.60;99.90;;;;;;5027174;28;20225;-63
2022/11/28 03:34:38;;;;;;;18.83;12.60;;;4.60;99.90;;;;;;5027942;28;20198;-63
2022/11/28 03:37:10;;;;;;;15.47;12.70;;;4.60;99.90;;;;;;5036424;28;20225;-63
2022/11/28 03:39:40;;;;;;;17.27;12.20;;;4.60;99.90;;;;;;5035975;28;20222;-63
2022/11/28 03:42:12;;;;;;;16.27;12.63;;;4.60;99.90;;;;;;5034290;28;20658;-63
2022/11/28 03:44:45;;;;;;;15.67;11.43;;;4.50;99.90;;;;;;5036257;28;20270;-63
2022/11/28 03:47:10;;;;;;;18.67;12.23;;;4.50;99.90;;;;;;5036202;28;20202;-62
2022/11/28 03:49:40;;;;;;;15.10;11.70;;;4.50;99.90;;;;;;5036225;28;20202;-63
2022/11/28 03:52:11;;;;;;;15.50;11.83;;;4.50;99.90;;;;;;5036131;28;20245;-63
2022/11/28 03:55:06;;;;;;;17.80;10.97;;;4.50;99.90;;;;;;5038174;28;20702;-63
2022/11/28 03:57:41;;;;;;;18.17;12.40;;;4.50;99.90;;;;;;5034438;28;20226;-64
2022/11/28 04:00:09;;;;;;;18.27;12.83;;;4.40;99.90;;;;;;5033162;28;20219;-64
2022/11/28 04:03:04;;;;;;;18.63;10.63;;;4.40;99.90;;;;;;5036332;28;20207;-64
2022/11/28 04:05:56;;;;;;;18.30;12.27;;;4.40;99.90;;;;;;5031644;28;20278;-65
2022/11/28 04:08:35;;;;;;;20.97;11.60;;;4.40;99.90;;;;;;5026597;28;20236;-65
2022/11/28 04:11:19;;;;;;;18.93;11.80;;;4.40;99.90;;;;;;5029337;28;20213;-66
2022/11/28 04:13:53;;;;;;;17.47;11.30;;;4.40;99.90;;;;;;5035377;28;20851;-65
2022/11/28 04:16:21;;;;;;;15.83;11.60;;;4.40;99.90;;;;;;5034675;28;20278;-64
2022/11/28 04:18:59;;;;;;;21.30;12.93;;;4.40;99.90;;;;;;5033850;28;20277;-63
2022/11/28 04:21:44;;;;;;;17.83;11.80;;;4.30;99.90;;;;;;5035865;28;20687;-63
2022/11/28 04:24:13;;;;;;;19.80;12.30;;;4.30;99.90;;;;;;5035844;28;20207;-63
2022/11/28 04:26:44;;;;;;;20.30;13.33;;;4.30;99.90;;;;;;5039416;28;20285;-63
2022/11/28 04:29:14;;;;;;;17.50;11.17;;;4.30;99.90;;;;;;5041190;28;20206;-63
2022/11/28 04:31:42;;;;;;;18.90;12.93;;;4.30;99.90;;;;;;5044330;28;20335;-63
2022/11/28 04:34:13;;;;;;;12.60;9.90;;;4.30;99.90;;;;;;5039986;28;20214;-63
2022/11/28 04:36:43;;;;;;;18.47;12.53;;;4.30;99.90;;;;;;5042055;28;20194;-63
2022/11/28 04:39:13;;;;;;;17.13;11.63;;;4.30;99.90;;;;;;5042334;28;20218;-63
2022/11/28 04:41:53;;;;;;;21.87;13.70;;;4.30;99.90;;;;;;5042353;28;21180;-65
2022/11/28 04:44:34;;;;;;;20.67;13.07;;;4.30;99.90;;;;;;5042185;28;20579;-63
2022/11/28 04:47:00;;;;;;;15.03;12.07;;;4.40;99.90;;;;;;5038871;28;20211;-62
2022/11/28 04:49:28;;;;;;;19.20;13.10;;;4.40;99.90;;;;;;5040452;28;20206;-63
2022/11/28 04:52:14;;;;;;;17.30;11.37;;;4.50;99.90;;;;;;5042616;28;20209;-62
2022/11/28 04:54:59;;;;;;;17.73;12.97;;;4.50;99.90;;;;;;5040734;28;20676;-63
2022/11/28 04:57:32;;;;;;;16.77;13.37;;;4.50;99.90;;;;;;5038760;28;20698;-63
2022/11/28 05:00:03;;;;;;;20.93;14.13;;;4.50;99.90;;;;;;5040301;28;20246;-63
2022/11/28 05:02:29;;;;;;;22.80;13.57;;;4.50;99.90;;;;;;5042642;28;20735;-63
2022/11/28 05:04:55;;;;;;;18.00;12.20;;;4.60;99.90;;;;;;5042212;28;20206;-63
2022/11/28 05:07:22;;;;;;;18.30;11.63;;;4.60;99.90;;;;;;5041898;28;20191;-63
2022/11/28 05:09:48;;;;;;;20.97;12.80;;;4.60;99.90;;;;;;5039976;28;20233;-63
2022/11/28 05:12:13;;;;;;;18.00;12.87;;;4.60;99.90;;;;;;5041796;28;20240;-63
2022/11/28 05:14:39;;;;;;;17.77;12.47;;;4.70;99.90;;;;;;5042099;28;20195;-64
2022/11/28 05:17:06;;;;;;;14.07;9.83;;;4.70;99.90;;;;;;5042393;28;20199;-63
2022/11/28 05:19:31;;;;;;;16.80;11.37;;;4.60;99.90;;;;;;5042032;28;20229;-63
2022/11/28 05:21:57;;;;;;;21.20;13.17;;;4.60;99.90;;;;;;5042140;28;20199;-63
2022/11/28 05:24:22;;;;;;;20.50;13.10;;;4.60;99.90;;;;;;5040237;28;20206;-65
2022/11/28 05:26:48;;;;;;;20.80;11.87;;;4.70;99.90;;;;;;5046287;28;20204;-65
2022/11/28 05:29:13;;;;;;;20.93;12.40;;;4.70;99.90;;;;;;5029600;28;20222;-65
2022/11/28 05:31:39;;;;;;;16.33;11.70;;;4.70;99.90;;;;;;5032244;28;20193;-63
2022/11/28 05:34:04;;;;;;;17.27;12.43;;;4.60;99.90;;;;;;5032825;28;20668;-65
2022/11/28 05:36:30;;;;;;;18.60;12.60;;;4.60;99.90;;;;;;5029807;28;20194;-64
2022/11/28 05:38:55;;;;;;;17.00;12.80;;;4.70;99.90;;;;;;5028362;28;20219;-64
2022/11/28 05:41:24;;;;;;;16.27;12.87;;;4.70;99.90;;;;;;5028355;28;20226;-65
2022/11/28 05:43:50;;;;;;;18.63;12.03;;;4.70;99.90;;;;;;5028060;28;20355;-65
2022/11/28 05:46:17;;;;;;;19.47;13.23;;;4.70;99.90;;;;;;5031585;28;20200;-65
2022/11/28 05:48:42;;;;;;;22.30;12.97;;;4.80;99.90;;;;;;5024952;28;20200;-65
2022/11/28 05:51:08;;;;;;;18.87;11.03;;;4.80;99.90;;;;;;5025407;28;20225;-65
2022/11/28 05:53:34;;;;;;;17.43;12.33;;;4.80;99.90;;;;;;5028749;28;20216;-65
2022/11/28 05:56:08;;;;;;;11.53;8.93;;;4.80;99.90;;;;;;5028943;28;20519;-65
2022/11/28 05:58:34;;;;;;;22.60;13.10;;;4.80;99.90;;;;;;5028464;28;20596;-65
2022/11/28 06:01:06;;;;;;;17.93;11.67;;;4.80;99.90;;;;;;5027238;28;20436;-65
2022/11/28 06:03:32;;;;;;;18.47;10.07;;;4.80;99.90;;;;;;5028253;28;20693;-66
2022/11/28 06:05:58;;;;;;;19.47;12.70;;;4.70;99.90;;;;;;5027782;28;20226;-65
2022/11/28 06:08:23;;;;;;;19.93;13.23;;;4.70;99.90;;;;;;5027402;28;20756;-65
2022/11/28 06:10:56;;;;;;;17.17;12.10;;;4.70;99.90;;;;;;5035042;28;20214;-65
2022/11/28 06:13:22;;;;;;;19.13;13.40;;;4.80;99.90;;;;;;5024383;28;20214;-66
2022/11/28 06:15:47;;;;;;;18.07;11.97;;;4.70;99.90;;;;;;5028037;28;20300;-65
2022/11/28 06:18:13;;;;;;;17.53;11.53;;;4.70;99.90;;;;;;5028477;28;20213;-66
2022/11/28 06:20:38;;;;;;;16.47;12.77;;;4.70;99.90;;;;;;5028130;28;20210;-65
2022/11/28 06:23:04;;;;;;;16.37;11.83;;;4.70;99.90;;;;;;5027852;28;20665;-65
2022/11/28 06:25:30;;;;;;;19.27;13.00;;;4.70;99.90;;;;;;5025832;28;20195;-65
2022/11/28 06:27:55;;;;;;;19.57;12.40;;;4.70;99.90;;;;;;5027708;28;20195;-64
2022/11/28 06:30:21;;;;;;;17.57;12.67;;;4.70;99.90;;;;;;5028794;28;20286;-65
2022/11/28 06:32:46;;;;;;;19.17;13.47;;;4.70;99.90;;;;;;5025153;28;20356;-65
2022/11/28 06:35:12;;;;;;;19.27;14.23;;;4.70;99.90;;;;;;5027608;28;20209;-65
2022/11/28 06:37:37;;;;;;;15.93;10.97;;;4.60;99.90;;;;;;5025771;28;20203;-65
2022/11/28 06:40:03;;;;;;;22.23;12.90;;;4.60;99.90;;;;;;5028011;28;20210;-65
2022/11/28 06:42:29;;;;;;;22.17;14.23;;;4.60;99.90;;;;;;5028846;28;20659;-65
2022/11/28 06:44:54;;;;;;;22.13;14.00;;;4.50;99.90;;;;;;5028689;28;20198;-65
2022/11/28 06:47:20;;;;;;;15.13;9.97;;;4.50;99.90;;;;;;5024450;28;20195;-65
2022/11/28 06:49:47;;;;;;;27.10;14.90;;;4.50;99.90;;;;;;5034954;28;20687;-65
2022/11/28 06:52:13;;;;;;;23.17;14.67;;;4.40;99.90;;;;;;5025818;28;20203;-65
2022/11/28 06:54:38;;;;;;;23.07;15.70;;;4.40;99.90;;;;;;5028001;28;21138;-65
2022/11/28 06:57:04;;;;;;;29.03;16.63;;;4.40;99.90;;;;;;5030106;28;20212;-65
2022/11/28 06:59:29;;;;;;;25.23;14.47;;;4.40;99.90;;;;;;5028258;28;20309;-64
2022/11/28 07:01:56;;;;;;;22.13;15.63;;;4.30;99.90;;;;;;5027026;28;20204;-65
2022/11/28 07:04:22;;;;;;;23.43;15.07;;;4.30;99.90;;;;;;5027584;28;20482;-64
2022/11/28 07:06:47;;;;;;;23.63;16.30;;;4.30;99.90;;;;;;5028518;28;20269;-64
2022/11/28 07:09:13;;;;;;;34.93;20.47;;;4.30;99.90;;;;;;5028176;28;20209;-64
2022/11/28 07:11:40;;;;;;;26.60;17.07;;;4.30;99.90;;;;;;5027321;28;20202;-66
2022/11/28 07:14:05;;;;;;;26.30;17.67;;;4.20;99.90;;;;;;5027007;28;20202;-64
2022/11/28 07:16:32;;;;;;;23.77;16.87;;;4.20;99.90;;;;;;5026520;28;20203;-65
2022/11/28 07:18:59;;;;;;;26.07;17.33;;;4.20;99.90;;;;;;5025989;28;20282;-62
2022/11/28 07:21:25;;;;;;;25.53;16.30;;;4.20;99.90;;;;;;5025778;28;20214;-69
2022/11/28 07:23:52;;;;;;;21.07;14.83;;;4.30;99.90;;;;;;5024531;28;20237;-63
2022/11/28 07:26:20;;;;;;;25.73;14.83;;;4.30;99.90;;;;;;5025384;28;20753;-63
2022/11/28 07:28:46;;;;;;;24.37;16.33;;;4.30;99.90;;;;;;5025154;28;20207;-65
2022/11/28 07:31:14;;;;;;;23.20;16.23;;;4.30;99.90;;;;;;5027767;28;20352;-65
2022/11/28 07:33:42;;;;;;;23.30;15.60;;;4.30;99.90;;;;;;5024530;28;20210;-63
2022/11/28 07:36:17;;;;;;;30.60;14.83;;;4.40;99.90;;;;;;5023406;28;20216;-64
2022/11/28 07:38:49;;;;;;;25.63;14.53;;;4.40;99.90;;;;;;5024946;28;20209;-63
2022/11/28 07:41:15;;;;;;;21.87;14.60;;;4.40;99.90;;;;;;5024863;28;20219;-62
2022/11/28 07:43:42;;;;;;;24.87;16.13;;;4.40;99.90;;;;;;5028535;28;20206;-62
2022/11/28 07:46:11;;;;;;;14.50;11.77;;;4.40;99.90;;;;;;5023282;28;20661;-63
2022/11/28 07:48:36;;;;;;;31.50;15.93;;;4.50;99.90;;;;;;5027134;28;20221;-63
2022/11/28 07:51:32;;;;;;;20.77;13.57;;;4.50;99.90;;;;;;5027376;28;20209;-65
2022/11/28 07:53:58;;;;;;;28.87;16.63;;;4.50;99.90;;;;;;5012561;28;20230;-64
2022/11/28 07:56:27;;;;;;;21.83;15.40;;;4.50;99.90;;;;;;5029399;28;20325;-63
2022/11/28 07:58:52;;;;;;;22.93;16.43;;;4.50;99.90;;;;;;5026369;28;20768;-65
2022/11/28 08:01:23;;;;;;;25.13;16.53;;;4.50;99.90;;;;;;5023122;28;20669;-69
2022/11/28 08:03:49;;;;;;;25.23;17.77;;;4.50;99.90;;;;;;5027411;28;20207;-66
2022/11/28 08:06:17;;;;;;;19.83;15.13;;;4.60;99.90;;;;;;5024846;28;20208;-65
2022/11/28 08:08:42;;;;;;;24.40;15.70;;;4.60;99.90;;;;;;5025108;28;20312;-66
2022/11/28 08:11:09;;;;;;;22.83;14.27;;;4.70;99.90;;;;;;5026280;28;20211;-65
2022/11/28 08:13:36;;;;;;;23.20;14.53;;;4.80;99.90;;;;;;5026373;28;20655;-65
2022/11/28 08:16:07;;;;;;;16.50;12.33;;;4.90;99.90;;;;;;5026125;28;20203;-64
2022/11/28 08:18:34;;;;;;;19.70;13.77;;;4.90;99.90;;;;;;5022577;28;20213;-65
2022/11/28 08:21:05;;;;;;;22.73;15.43;;;4.90;99.90;;;;;;5026805;28;20223;-65
2022/11/28 08:23:33;;;;;;;19.13;11.33;;;4.90;99.90;;;;;;5026822;28;20206;-64
2022/11/28 08:26:00;;;;;;;20.80;14.40;;;4.80;99.90;;;;;;5026123;28;20278;-63
2022/11/28 08:28:26;;;;;;;21.73;13.93;;;4.80;99.90;;;;;;5025566;28;20215;-64
2022/11/28 08:30:52;;;;;;;23.63;14.67;;;4.80;99.90;;;;;;5025610;28;20203;-65
2022/11/28 08:33:17;;;;;;;23.33;16.50;;;4.80;99.90;;;;;;5025740;28;20198;-65
2022/11/28 08:35:42;;;;;;;22.87;15.90;;;4.90;99.90;;;;;;5025915;28;20194;-65
2022/11/28 08:38:08;;;;;;;23.30;16.27;;;4.80;99.90;;;;;;5024710;28;20210;-65
2022/11/28 08:40:33;;;;;;;25.00;16.00;;;4.90;99.90;;;;;;5029278;28;20214;-66
2022/11/28 08:42:59;;;;;;;19.03;14.00;;;5.00;99.90;;;;;;5023120;28;20231;-66
2022/11/28 08:45:24;;;;;;;22.93;15.70;;;5.00;99.90;;;;;;5028804;28;20234;-65
2022/11/28 08:47:50;;;;;;;21.23;15.37;;;5.00;99.90;;;;;;5024440;28;20288;-66
2022/11/28 08:50:16;;;;;;;23.17;14.33;;;5.10;99.90;;;;;;5026772;28;20202;-65
2022/11/28 08:52:41;;;;;;;26.20;16.47;;;5.20;99.90;;;;;;5024678;28;20205;-66
2022/11/28 08:55:07;;;;;;;27.37;16.03;;;5.20;99.90;;;;;;5024022;28;20211;-63
2022/11/28 08:57:32;;;;;;;21.53;14.43;;;5.20;99.90;;;;;;5035793;28;20568;-60
2022/11/28 08:59:58;;;;;;;22.90;15.33;;;5.20;99.90;;;;;;5026906;28;20214;-58
2022/11/28 09:02:23;;;;;;;26.27;15.47;;;5.30;99.90;;;;;;5024427;28;20257;-58
2022/11/28 09:04:49;;;;;;;23.97;16.27;;;5.30;99.90;;;;;;5025838;28;20613;-59
2022/11/28 09:07:14;;;;;;;23.37;16.37;;;5.40;99.90;;;;;;5024039;28;20191;-60
2022/11/28 09:09:40;;;;;;;24.13;15.13;;;5.40;99.90;;;;;;5024915;28;20292;-59
2022/11/28 09:12:06;;;;;;;23.30;15.40;;;5.40;99.90;;;;;;5036401;28;20260;-56
2022/11/28 09:14:31;;;;;;;23.20;15.83;;;5.40;99.90;;;;;;5039812;28;20992;-58
2022/11/28 09:16:56;;;;;;;21.97;14.90;;;5.40;99.90;;;;;;5028677;28;20207;-58
2022/11/28 09:19:23;;;;;;;13.53;8.23;;;5.50;99.90;;;;;;5034238;28;20797;-60
2022/11/28 09:21:48;;;;;;;23.40;15.83;;;5.40;99.90;;;;;;5031786;28;20718;-58
2022/11/28 09:24:13;;;;;;;22.63;15.57;;;5.50;99.90;;;;;;5029877;28;20290;-59
2022/11/28 09:26:39;;;;;;;25.03;15.10;;;5.60;99.90;;;;;;5028861;28;21195;-59
2022/11/28 09:29:05;;;;;;;22.53;15.80;;;5.60;99.90;;;;;;5035934;28;20744;-61
2022/11/28 09:31:30;;;;;;;19.43;13.13;;;5.60;99.90;;;;;;5038538;28;20287;-59
2022/11/28 09:33:56;;;;;;;24.93;15.57;;;5.60;99.90;;;;;;5037478;28;20224;-58
2022/11/28 09:36:23;;;;;;;24.07;15.03;;;5.60;99.90;;;;;;5039239;28;20673;-58
2022/11/28 09:38:49;;;;;;;21.97;15.03;;;5.70;99.90;;;;;;5042190;28;20795;-58
2022/11/28 09:41:30;;;;;;;22.53;15.60;;;5.70;99.90;;;;;;5035907;28;20219;-58
2022/11/28 09:44:01;;;;;;;28.03;16.57;;;5.80;99.90;;;;;;5038797;28;20197;-58
2022/11/28 09:46:31;;;;;;;22.00;14.43;;;5.80;99.90;;;;;;5038884;28;20225;-59
2022/11/28 09:49:01;;;;;;;22.47;14.23;;;5.80;99.90;;;;;;5025203;28;20698;-59
2022/11/28 09:51:48;;;;;;;20.87;14.67;;;5.90;99.90;;;;;;5029638;28;20204;-57
2022/11/28 09:54:31;;;;;;;22.20;14.73;;;5.90;99.90;;;;;;5033406;28;20306;-55
2022/11/28 09:56:57;;;;;;;24.57;13.27;;;5.90;99.90;;;;;;5028762;28;20210;-59
2022/11/28 09:59:24;;;;;;;23.33;15.00;;;5.90;99.90;;;;;;5028555;28;20226;-57
2022/11/28 10:02:15;;;;;;;20.20;13.90;;;6.00;99.90;;;;;;5027320;28;20202;-58
2022/11/28 10:04:52;;;;;;;24.03;15.60;;;6.00;99.90;;;;;;5026666;28;20204;-58
2022/11/28 10:07:37;;;;;;;25.13;15.77;;;6.20;99.90;;;;;;5029073;28;20202;-75
2022/11/28 10:10:33;;;;;;;24.13;14.60;;;6.20;99.90;;;;;;5030797;28;20290;-58
2022/11/28 10:13:09;;;;;;;19.43;12.53;;;6.30;99.90;;;;;;5028246;28;20720;-58
2022/11/28 10:15:38;;;;;;;21.40;13.90;;;6.30;99.90;;;;;;5028178;28;20745;-58
2022/11/28 10:18:25;;;;;;;22.80;14.43;;;6.30;99.90;;;;;;5029464;28;20586;-58
2022/11/28 10:20:56;;;;;;;25.43;14.40;;;6.30;99.90;;;;;;5027705;28;20237;-58
2022/11/28 10:23:30;;;;;;;24.87;15.00;;;6.20;99.90;;;;;;5027402;28;20214;-59
2022/11/28 10:26:31;;;;;;;28.80;16.13;;;6.20;99.90;;;;;;5028371;28;20549;-59
2022/11/28 10:29:01;;;;;;;22.20;15.83;;;6.20;99.90;;;;;;5031208;28;20253;-58
2022/11/28 10:31:33;;;;;;;28.27;16.80;;;6.20;99.90;;;;;;5028522;28;20214;-59
2022/11/28 10:34:23;;;;;;;25.37;13.53;;;6.20;99.90;;;;;;5026672;28;21055;-58
2022/11/28 10:37:23;;;;;;;22.97;15.23;;;6.20;99.90;;;;;;5030866;28;21057;-57
2022/11/28 10:39:50;;;;;;;25.13;15.43;;;6.20;99.90;;;;;;5030418;28;21606;-58
2022/11/28 10:42:40;;;;;;;20.07;14.80;;;6.20;99.90;;;;;;5028509;28;21000;-58
2022/11/28 10:45:18;;;;;;;28.60;15.37;;;6.20;99.90;;;;;;5028495;28;20203;-57
2022/11/28 10:47:49;;;;;;;21.77;14.17;;;6.20;99.90;;;;;;5024002;28;20672;-57
2022/11/28 10:50:40;;;;;;;27.07;16.53;;;6.20;99.90;;;;;;5029532;28;20617;-63
2022/11/28 10:53:30;;;;;;;20.97;12.73;;;6.30;99.90;;;;;;5026160;28;20201;-59
2022/11/28 10:56:10;;;;;;;22.17;14.20;;;6.30;99.90;;;;;;5029131;28;20206;-58
2022/11/28 10:59:11;;;;;;;23.47;16.27;;;6.40;99.90;;;;;;5030546;28;20319;-74
2022/11/28 11:01:39;;;;;;;25.17;13.73;;;6.50;99.90;;;;;;5022781;28;20214;-60
2022/11/28 11:04:15;;;;;;;27.20;16.23;;;6.50;99.90;;;;;;5028058;28;20230;-60
2022/11/28 11:06:40;;;;;;;20.23;15.10;;;6.50;99.90;;;;;;5024753;28;20207;-58
2022/11/28 11:09:06;;;;;;;21.93;15.20;;;6.50;99.90;;;;;;5027592;28;20897;-56
2022/11/28 11:11:35;;;;;;;22.43;15.17;;;6.50;99.90;;;;;;5027330;28;20256;-58
2022/11/28 11:14:07;;;;;;;22.00;14.70;;;6.50;99.90;;;;;;5028995;28;20606;-58
2022/11/28 11:16:53;;;;;;;22.20;15.20;;;6.40;99.90;;;;;;5025789;28;20203;-60
2022/11/28 11:19:30;;;;;;;24.53;15.30;;;6.40;99.90;;;;;;5022819;28;20199;-54
2022/11/28 11:22:17;;;;;;;22.20;15.60;;;6.50;99.90;;;;;;5037131;28;20194;-54
2022/11/28 11:24:43;;;;;;;23.30;14.80;;;6.50;99.90;;;;;;5037489;28;20702;-68
2022/11/28 11:27:21;;;;;;;27.70;15.00;;;6.60;99.90;;;;;;5034954;28;20207;-66
2022/11/28 11:29:47;;;;;;;23.07;13.97;;;6.70;99.90;;;;;;5028737;28;20206;-68
2022/11/28 11:32:22;;;;;;;22.13;14.93;;;6.70;99.90;;;;;;5030884;28;20214;-68
2022/11/28 11:34:48;;;;;;;22.47;14.13;;;6.80;99.90;;;;;;5026960;28;20195;-67
2022/11/28 11:37:34;;;;;;;22.53;15.33;;;6.80;99.90;;;;;;5027827;28;20222;-70
2022/11/28 11:40:01;;;;;;;27.13;16.23;;;6.80;99.90;;;;;;5032920;28;20348;-67
2022/11/28 11:42:28;;;;;;;23.27;15.47;;;6.90;99.90;;;;;;5036943;28;20692;-67
2022/11/28 11:44:55;;;;;;;21.40;14.07;;;7.00;99.90;;;;;;5029120;28;20233;-67
2022/11/28 11:47:42;;;;;;;24.00;16.50;;;7.10;99.90;;;;;;5027013;28;20196;-67
2022/11/28 11:50:17;;;;;;;28.63;16.77;;;7.20;99.90;;;;;;5026942;28;20575;-68
2022/11/28 11:52:43;;;;;;;19.40;14.13;;;7.20;99.90;;;;;;5024952;28;20312;-72
2022/11/28 11:55:15;;;;;;;24.00;14.80;;;7.20;99.90;;;;;;5023049;28;20678;-69
2022/11/28 11:57:51;;;;;;;23.80;16.07;;;7.20;99.90;;;;;;5027157;28;20233;-63
2022/11/28 12:00:18;;;;;;;19.07;13.50;;;7.20;99.90;;;;;;5025223;28;20250;-61
2022/11/28 12:03:11;;;;;;;21.90;13.63;;;7.20;99.90;;;;;;5027283;28;20250;-61
2022/11/28 12:05:59;;;;;;;18.33;12.40;;;6.90;99.90;;;;;;5026431;28;20289;-61
2022/11/28 12:08:34;;;;;;;21.33;15.07;;;6.80;99.90;;;;;;5026249;28;20201;-61
2022/11/28 12:11:09;;;;;;;22.33;13.63;;;6.70;99.90;;;;;;5028711;28;20215;-61
2022/11/28 12:13:34;;;;;;;24.97;16.37;;;6.60;99.90;;;;;;5025204;28;20204;-61
2022/11/28 12:16:05;;;;;;;21.83;14.77;;;6.60;99.90;;;;;;5026180;28;20681;-67
2022/11/28 12:19:05;;;;;;;24.20;15.40;;;6.60;99.90;;;;;;5024030;28;20208;-67
2022/11/28 12:22:04;;;;;;;18.73;12.30;;;6.60;99.90;;;;;;5023506;28;20634;-68
2022/11/28 12:24:54;;;;;;;23.87;14.93;;;6.50;99.90;;;;;;5025428;28;20553;-66
2022/11/28 12:27:33;;;;;;;24.07;14.90;;;6.50;99.90;;;;;;5022515;28;20282;-65
2022/11/28 12:30:17;;;;;;;24.87;14.93;;;6.50;99.90;;;;;;5023968;28;20198;-68
2022/11/28 12:32:55;;;;;;;24.20;14.67;;;6.60;99.90;;;;;;5025732;28;20203;-68
2022/11/28 12:35:43;;;;;;;21.63;14.30;;;6.60;99.90;;;;;;5022555;28;20561;-69
2022/11/28 12:38:47;;;;;;;25.10;14.53;;;6.80;99.90;;;;;;5023907;28;20234;-65
2022/11/28 12:41:40;;;;;;;24.27;13.10;;;6.90;99.90;;;;;;5023104;28;20221;-64
2022/11/28 12:44:47;;;;;;;18.20;12.23;;;7.00;99.90;;;;;;5025777;28;20233;-66
2022/11/28 12:47:34;;;;;;;18.60;13.63;;;7.10;99.90;;;;;;5026876;28;20238;-63
2022/11/28 12:50:36;;;;;;;22.47;13.53;;;7.20;99.90;;;;;;5030382;28;20211;-63
2022/11/28 12:53:26;;;;;;;24.37;13.40;;;7.20;99.90;;;;;;5026862;28;20206;-64
2022/11/28 12:56:08;;;;;;;18.33;12.40;;;7.20;99.90;;;;;;5031231;28;20218;-64
2022/11/28 12:58:44;;;;;;;20.47;12.60;;;7.20;99.90;;;;;;5026463;28;20245;-64
2022/11/28 13:01:28;;;;;;;18.73;13.37;;;7.20;99.90;;;;;;5028347;28;20709;-64
2022/11/28 13:04:14;;;;;;;17.40;12.23;;;7.20;99.90;;;;;;5030387;28;20324;-64